Time;durP1;ratioP1;P1;durP2;ratioP2;P2;SDS_P1;SDS_P2;PMS_P1;PMS_P2;Temp;Humidity;BMP_temperature;BMP_pressure;BME280_temperature;BME280_humidity;BME280_pressure;Samples;Min_cycle;Max_cycle;Signal;HPM_P1;HPM_P2
2022/10/03 00:00:31;;;;;;;15.53;4.97;;;;;;;18.48;100.00;102356.97;4993799;28;20275;-51
2022/10/03 00:03:16;;;;;;;21.37;5.40;;;;;;;18.69;100.00;102352.31;5000656;28;20293;-51
2022/10/03 00:06:01;;;;;;;20.90;5.90;;;;;;;18.38;100.00;102367.38;5010575;28;20293;-49
2022/10/03 00:08:47;;;;;;;16.20;4.23;;;;;;;18.33;100.00;102357.16;4997617;28;20267;-51
2022/10/03 00:11:28;;;;;;;16.53;4.33;;;;;;;18.42;100.00;102362.38;4992779;28;20260;-51
2022/10/03 00:14:16;;;;;;;22.43;4.87;;;;;;;18.49;100.00;102369.47;4996568;28;20266;-56
2022/10/03 00:17:03;;;;;;;21.10;4.70;;;;;;;18.59;100.00;102362.75;4996738;28;20274;-52
2022/10/03 00:19:56;;;;;;;16.30;4.47;;;;;;;18.59;100.00;102362.75;4991351;28;20277;-56
2022/10/03 00:22:41;;;;;;;19.73;5.27;;;;;;;18.46;100.00;102371.75;5000784;28;20031;-51
2022/10/03 00:25:35;;;;;;;14.50;4.53;;;;;;;18.33;100.00;102372.59;4996578;28;20280;-52
2022/10/03 00:28:25;;;;;;;29.33;7.17;;;;;;;18.46;100.00;102380.72;4997514;28;20288;-51
2022/10/03 00:31:12;;;;;;;19.10;5.73;;;;;;;18.27;100.00;102390.50;5003844;28;20284;-51
2022/10/03 00:33:52;;;;;;;22.83;5.10;;;;;;;18.11;100.00;102393.66;4999566;28;20286;-53
2022/10/03 00:36:37;;;;;;;18.70;4.97;;;;;;;18.51;100.00;102390.09;4998964;28;20096;-53
2022/10/03 00:39:25;;;;;;;22.35;5.75;;;;;;;18.83;100.00;102392.91;4997196;28;20322;-53
2022/10/03 00:42:19;;;;;;;17.37;4.73;;;;;;;18.76;100.00;102384.78;4992522;28;20031;-53
2022/10/03 00:45:30;;;;;;;20.27;4.80;;;;;;;18.68;100.00;102388.56;4996670;28;20284;-53
2022/10/03 00:48:04;;;;;;;17.57;4.20;;;;;;;18.51;100.00;102387.38;4993015;28;20256;-54
2022/10/03 00:50:51;;;;;;;13.47;5.50;;;;;;;18.29;100.00;102395.72;4997768;28;20304;-54
2022/10/03 00:53:36;;;;;;;23.75;4.88;;;;;;;18.31;100.00;102399.06;4991535;28;20265;-52
2022/10/03 00:56:14;;;;;;;21.63;4.67;;;;;;;18.25;100.00;102391.78;4997839;28;20068;-49
2022/10/03 00:58:46;;;;;;;16.03;4.90;;;;;;;18.30;100.00;102405.53;4989046;28;20356;-48
2022/10/03 01:01:23;;;;;;;14.93;4.90;;;;;;;18.33;100.00;102407.81;4992906;28;20276;-53
2022/10/03 01:04:06;;;;;;;17.23;4.18;;;;;;;18.16;100.00;102393.88;4996839;28;20304;-52
2022/10/03 01:06:52;;;;;;;25.67;4.77;;;;;;;17.94;100.00;102401.31;5011862;28;20056;-54
2022/10/03 01:09:52;;;;;;;17.83;5.03;;;;;;;17.92;100.00;102407.75;5001922;28;20332;-52
2022/10/03 01:13:04;;;;;;;21.17;4.90;;;;;;;18.04;100.00;102404.47;5001849;28;20272;-54
2022/10/03 01:15:44;;;;;;;26.93;4.33;;;;;;;18.10;100.00;102414.47;4978234;28;20285;-54
2022/10/03 01:18:42;;;;;;;17.67;4.20;;;;;;;17.85;100.00;102430.44;5010642;28;20336;-52
2022/10/03 01:21:29;;;;;;;20.08;4.47;;;;;;;17.99;100.00;102425.88;4990422;28;20303;-54
2022/10/03 01:24:10;;;;;;;22.40;4.83;;;;;;;17.99;100.00;102426.72;5019059;28;20033;-53
2022/10/03 01:26:57;;;;;;;18.77;5.53;;;;;;;17.84;100.00;102437.72;4990802;28;20307;-51
2022/10/03 01:33:10;;;;;;;22.60;4.17;;;;;;;18.03;100.00;102427.19;5009180;28;20113;-52
2022/10/03 01:35:55;;;;;;;16.57;4.57;;;;;;;18.00;100.00;102428.38;5000296;28;20326;-51
2022/10/03 01:38:46;;;;;;;15.83;4.17;;;;;;;18.19;100.00;102423.22;4991308;28;20261;-51
2022/10/03 01:41:33;;;;;;;27.35;6.05;;;;;;;18.13;100.00;102424.88;4989979;28;20332;-57
2022/10/03 01:44:18;;;;;;;20.50;4.60;;;;;;;17.68;100.00;102421.88;4995107;28;20045;-53
2022/10/03 01:47:14;;;;;;;23.87;5.53;;;;;;;17.77;100.00;102432.31;5008643;28;20047;-52
2022/10/03 01:50:11;;;;;;;16.40;4.23;;;;;;;17.74;100.00;102424.59;4989992;28;20304;-54
2022/10/03 01:53:03;;;;;;;17.95;4.32;;;;;;;17.60;100.00;102426.44;4972864;28;20285;-54
2022/10/03 01:55:51;;;;;;;12.67;4.27;;;;;;;17.35;100.00;102434.25;4950149;28;20069;-53
2022/10/03 01:58:22;;;;;;;;;;;;;;;17.37;100.00;102421.34;4969479;28;20267;-50
2022/10/03 02:01:00;;;;;;;17.60;4.13;;;;;;;17.32;100.00;102424.69;4961329;28;19961;-54
2022/10/03 02:03:34;;;;;;;25.77;6.07;;;;;;;17.59;100.00;102424.78;4958025;28;20058;-52
2022/10/03 02:06:05;;;;;;;19.80;4.10;;;;;;;17.52;100.00;102433.91;4957383;28;20285;-54
2022/10/03 02:08:50;;;;;;;30.95;4.90;;;;;;;17.03;100.00;102429.31;4957886;28;20043;-54
2022/10/03 02:11:36;;;;;;;14.37;4.27;;;;;;;17.41;100.00;102438.84;4956271;28;20066;-55
2022/10/03 02:14:20;;;;;;;19.53;4.30;;;;;;;17.45;100.00;102436.56;4948564;29;20299;-55
2022/10/03 02:17:05;;;;;;;17.95;5.35;;;;;;;17.63;100.00;102434.16;4960727;28;20274;-55
2022/10/03 02:19:43;;;;;;;19.65;4.57;;;;;;;17.84;100.00;102436.88;4946600;29;20039;-53
2022/10/03 02:22:28;;;;;;;15.88;4.13;;;;;;;18.15;100.00;102441.75;4968345;28;20058;-54
2022/10/03 02:25:31;;;;;;;16.60;4.53;;;;;;;18.04;100.00;102447.78;4947735;28;20067;-54
2022/10/03 02:28:09;;;;;;;17.17;4.57;;;;;;;17.99;100.00;102450.22;4955490;28;20051;-50
2022/10/03 02:30:55;;;;;;;23.53;4.40;;;;;;;18.07;100.00;102439.25;4946868;29;20285;-53
2022/10/03 02:33:38;;;;;;;15.85;4.35;;;;;;;18.32;100.00;102441.34;4946471;29;20289;-54
2022/10/03 02:36:34;;;;;;;21.83;4.38;;;;;;;18.19;100.00;102434.06;4946942;29;20036;-54
2022/10/03 02:39:29;;;;;;;15.25;4.40;;;;;;;17.98;100.00;102444.00;4960036;28;20040;-53
2022/10/03 02:42:32;;;;;;;16.00;4.67;;;;;;;17.55;100.00;102445.16;4945010;29;20046;-51
2022/10/03 02:45:43;;;;;;;12.30;4.37;;;;;;;17.32;100.00;102440.06;4967509;28;20287;-50
2022/10/03 02:48:35;;;;;;;16.73;3.95;;;;;;;17.48;100.00;102439.72;4953047;28;20274;-56
2022/10/03 02:51:19;;;;;;;18.15;4.22;;;;;;;17.59;100.00;102441.00;4963986;28;20077;-53
2022/10/03 02:54:23;;;;;;;18.60;4.50;;;;;;;17.54;100.00;102434.53;4998476;28;20045;-51
2022/10/03 02:57:29;;;;;;;25.95;5.35;;;;;;;17.51;100.00;102441.16;4993391;28;20042;-55
2022/10/03 03:00:27;;;;;;;27.27;4.90;;;;;;;17.37;100.00;102436.75;4996452;28;20035;-55
2022/10/03 03:03:28;;;;;;;15.10;4.43;;;;;;;17.36;100.00;102438.63;4999082;28;20042;-55
2022/10/03 03:06:19;;;;;;;15.23;4.15;;;;;;;17.60;100.00;102442.66;5000296;28;20023;-55
2022/10/03 03:09:17;;;;;;;22.45;4.47;;;;;;;17.66;100.00;102440.19;4991517;28;20039;-55
2022/10/03 03:12:04;;;;;;;14.05;4.68;;;;;;;17.96;100.00;102443.38;4998233;28;20055;-52
2022/10/03 03:14:58;;;;;;;13.73;4.80;;;;;;;18.02;100.00;102444.47;5013295;28;20041;-56
2022/10/03 03:17:39;;;;;;;12.50;4.47;;;;;;;18.02;100.00;102456.09;4999371;28;20053;-53
2022/10/03 03:20:04;;;;;;;20.77;5.75;;;;;;;18.19;100.00;102453.00;4998234;28;20051;-55
2022/10/03 03:22:57;;;;;;;13.23;4.60;;;;;;;18.32;100.00;102453.00;5004017;28;20035;-54
2022/10/03 03:26:01;;;;;;;19.35;4.45;;;;;;;17.80;100.00;102460.84;4993410;28;20098;-56
2022/10/03 03:28:43;;;;;;;20.95;5.07;;;;;;;17.65;100.00;102460.16;4998632;28;20031;-55
2022/10/03 03:31:13;;;;;;;16.80;4.47;;;;;;;17.58;100.00;102454.72;5000417;28;20090;-55
2022/10/03 03:34:06;;;;;;;15.75;5.28;;;;;;;17.50;100.00;102458.44;5001802;28;20048;-53
2022/10/03 03:36:36;;;;;;;16.00;4.63;;;;;;;17.51;100.00;102452.00;4999308;28;20041;-56
2022/10/03 03:39:22;;;;;;;22.02;5.13;;;;;;;17.52;100.00;102461.75;4991527;28;20045;-55
2022/10/03 03:42:11;;;;;;;21.25;6.05;;;;;;;17.56;100.00;102457.66;4988801;28;20047;-53
2022/10/03 03:45:08;;;;;;;19.77;4.57;;;;;;;17.59;100.00;102467.22;5000730;28;20095;-54
2022/10/03 03:47:53;;;;;;;24.17;5.25;;;;;;;17.62;100.00;102455.97;5001828;28;20044;-54
2022/10/03 03:50:43;;;;;;;12.90;4.28;;;;;;;17.70;100.00;102463.09;5002461;28;20043;-54
2022/10/03 03:53:55;;;;;;;28.20;5.50;;;;;;;17.49;100.00;102460.31;5011087;28;20035;-54
2022/10/03 03:56:37;;;;;;;17.83;4.57;;;;;;;17.58;100.00;102460.97;4993356;28;20053;-50
2022/10/03 03:59:19;;;;;;;17.47;5.73;;;;;;;17.43;100.00;102457.59;4992639;28;20035;-53
2022/10/03 04:02:16;;;;;;;16.40;5.05;;;;;;;17.29;100.00;102462.09;4991344;28;20253;-55
2022/10/03 04:05:00;;;;;;;21.10;5.28;;;;;;;17.27;100.00;102464.19;4989741;28;20047;-52
2022/10/03 04:07:40;;;;;;;16.63;4.43;;;;;;;17.29;100.00;102462.09;5003671;28;20039;-52
2022/10/03 04:10:15;;;;;;;19.90;5.20;;;;;;;17.24;100.00;102462.69;5012843;28;20052;-51
2022/10/03 04:13:12;;;;;;;12.88;4.63;;;;;;;17.22;100.00;102463.94;5011559;28;20031;-54
2022/10/03 04:16:06;;;;;;;19.42;5.13;;;;;;;17.15;100.00;102461.22;5003115;28;20033;-53
2022/10/03 04:18:57;;;;;;;14.30;4.75;;;;;;;17.14;100.00;102464.94;4989266;28;20056;-52
2022/10/03 04:21:34;;;;;;;19.58;5.10;;;;;;;16.87;100.00;102465.59;5005958;28;20060;-56
2022/10/03 04:24:07;;;;;;;28.55;6.47;;;;;;;16.95;100.00;102466.44;4992210;28;20039;-55
2022/10/03 04:26:50;;;;;;;23.10;5.20;;;;;;;16.98;100.00;102472.34;5001018;28;20049;-56
2022/10/03 04:29:46;;;;;;;23.02;6.00;;;;;;;16.85;100.00;102466.84;4990295;28;20034;-54
2022/10/03 04:32:28;;;;;;;18.30;5.68;;;;;;;16.88;100.00;102466.44;4995906;28;20035;-55
2022/10/03 04:35:32;;;;;;;16.23;5.80;;;;;;;16.58;100.00;102482.81;4988890;28;20068;-52
2022/10/03 04:38:12;;;;;;;14.75;5.53;;;;;;;16.64;100.00;102487.47;4990152;28;20035;-54
2022/10/03 04:40:49;;;;;;;20.67;5.90;;;;;;;16.54;100.00;102486.94;5003040;28;20033;-52
2022/10/03 04:43:33;;;;;;;20.45;5.20;;;;;;;16.82;100.00;102488.81;4991623;28;20094;-54
2022/10/03 04:46:26;;;;;;;15.30;5.70;;;;;;;16.77;100.00;102476.72;5000775;28;20039;-55
2022/10/03 04:49:13;;;;;;;13.70;6.38;;;;;;;17.06;100.00;102480.28;5000768;28;20035;-54
2022/10/03 04:51:59;;;;;;;16.00;5.85;;;;;;;17.05;100.00;102480.47;5003327;28;20042;-53
2022/10/03 04:54:47;;;;;;;19.58;6.05;;;;;;;16.87;100.00;102475.56;5001513;28;20030;-55
2022/10/03 04:57:32;;;;;;;;;;;;;;;16.80;100.00;102486.31;4990589;28;20057;-52
2022/10/03 05:00:32;;;;;;;21.40;6.05;;;;;;;16.87;100.00;102484.50;5009788;28;19982;-52
2022/10/03 05:03:13;;;;;;;23.38;7.25;;;;;;;16.85;100.00;102494.66;4994212;28;20050;-50
2022/10/03 05:05:55;;;;;;;21.55;5.72;;;;;;;16.55;100.00;102494.00;5012193;28;20042;-50
2022/10/03 05:08:43;;;;;;;22.77;5.47;;;;;;;16.66;100.00;102496.19;5005650;28;20046;-53
2022/10/03 05:11:32;;;;;;;15.68;6.53;;;;;;;16.87;100.00;102494.47;4993192;28;20099;-51
2022/10/03 05:14:11;;;;;;;18.10;6.25;;;;;;;17.12;100.00;102491.34;4991003;28;20046;-52
2022/10/03 05:16:51;;;;;;;22.25;6.80;;;;;;;17.49;100.00;102490.06;4993725;28;20039;-52
2022/10/03 05:19:40;;;;;;;20.92;5.90;;;;;;;16.88;100.00;102493.44;4998194;28;20037;-52
2022/10/03 05:22:31;;;;;;;18.88;6.95;;;;;;;16.75;100.00;102489.59;5004283;28;20069;-53
2022/10/03 05:25:08;;;;;;;19.17;5.53;;;;;;;16.71;100.00;102495.59;4993995;28;20046;-53
2022/10/03 05:27:50;;;;;;;17.30;5.90;;;;;;;16.83;100.00;102493.19;4988760;28;20028;-53
2022/10/03 05:30:41;;;;;;;16.23;6.10;;;;;;;16.91;100.00;102493.88;4990198;28;20039;-53
2022/10/03 05:33:32;;;;;;;20.05;6.45;;;;;;;16.91;100.00;102504.69;5006469;28;20033;-54
2022/10/03 05:36:22;;;;;;;25.63;6.97;;;;;;;16.91;100.00;102496.56;5015511;28;20102;-52
2022/10/03 05:38:57;;;;;;;19.13;6.47;;;;;;;16.59;100.00;102498.84;4991289;28;20052;-52
2022/10/03 05:41:28;;;;;;;20.73;5.72;;;;;;;16.84;100.00;102502.97;4991656;28;20081;-50
2022/10/03 05:44:13;;;;;;;13.57;5.38;;;;;;;16.77;100.00;102501.06;5017442;28;20092;-55
2022/10/03 05:46:56;;;;;;;13.27;5.57;;;;;;;16.92;100.00;102510.94;5005297;28;20049;-56
2022/10/03 05:49:32;;;;;;;15.98;5.68;;;;;;;16.94;100.00;102508.00;5005130;28;20031;-50
2022/10/03 05:52:35;;;;;;;22.33;5.82;;;;;;;16.61;100.00;102514.88;4987419;28;20076;-49
2022/10/03 05:55:14;;;;;;;21.65;6.18;;;;;;;16.70;100.00;102518.22;5002979;28;20094;-52
2022/10/03 05:58:08;;;;;;;25.20;6.63;;;;;;;16.89;100.00;102517.56;5013857;28;20122;-53
2022/10/03 06:00:52;;;;;;;25.40;8.75;;;;;;;16.69;100.00;102522.81;4991710;28;20034;-51
2022/10/03 06:03:42;;;;;;;23.15;9.00;;;;;;;16.89;100.00;102520.25;4986512;28;20068;-51
2022/10/03 06:06:29;;;;;;;21.42;7.93;;;;;;;16.90;100.00;102519.22;4996198;28;20039;-54
2022/10/03 06:09:13;;;;;;;;;;;;;;;16.57;100.00;102518.97;5002067;28;20054;-51
2022/10/03 06:11:54;;;;;;;23.70;7.82;;;;;;;16.87;100.00;102522.31;4989478;28;19914;-50
2022/10/03 06:14:57;;;;;;;23.85;7.10;;;;;;;16.88;100.00;102523.19;5005009;28;20041;-56
2022/10/03 06:17:34;;;;;;;21.95;7.50;;;;;;;16.97;100.00;102529.25;4989303;28;20043;-52
2022/10/03 06:20:25;;;;;;;22.13;7.10;;;;;;;17.01;100.00;102525.16;4998942;28;20039;-53
2022/10/03 06:23:17;;;;;;;17.45;6.72;;;;;;;17.13;100.00;102522.75;4995066;28;20061;-53
2022/10/03 06:25:52;;;;;;;24.65;6.97;;;;;;;17.17;100.00;102518.59;4998416;28;20094;-53
2022/10/03 06:28:39;;;;;;;18.52;6.90;;;;;;;17.27;100.00;102524.47;4992351;28;20042;-51
2022/10/03 06:31:25;;;;;;;;;;;;;;;17.23;100.00;102522.38;5001733;28;20128;-54
2022/10/03 06:34:09;;;;;;;18.83;6.13;;;;;;;17.08;100.00;102531.44;4997495;28;19918;-54
2022/10/03 06:37:18;;;;;;;22.00;6.40;;;;;;;16.98;100.00;102533.63;4993675;28;20038;-56
2022/10/03 06:39:52;;;;;;;21.30;7.67;;;;;;;17.10;100.00;102539.38;5013457;28;20039;-50
2022/10/03 06:42:24;;;;;;;20.52;6.85;;;;;;;17.25;100.00;102536.53;5011760;28;20031;-55
2022/10/03 06:44:57;;;;;;;20.03;7.93;;;;;;;17.27;100.00;102538.00;4971558;28;20057;-54
2022/10/03 06:47:57;;;;;;;19.37;7.90;;;;;;;17.54;100.00;102532.75;5007459;28;20266;-56
2022/10/03 06:50:53;;;;;;;17.80;8.03;;;;;;;17.41;100.00;102535.38;5002385;28;20337;-57
2022/10/03 06:53:25;;;;;;;19.77;7.87;;;;;;;17.68;100.00;102536.34;4993231;28;20280;-51
2022/10/03 06:56:08;;;;;;;16.07;7.33;;;;;;;17.41;100.00;102533.50;5005913;28;20285;-54
2022/10/03 06:58:53;;;;;;;17.93;7.60;;;;;;;17.54;100.00;102531.91;4994125;28;20277;-52
2022/10/03 07:01:49;;;;;;;19.53;7.23;;;;;;;17.09;100.00;102535.81;5013838;28;20257;-53
2022/10/03 07:04:45;;;;;;;24.97;7.50;;;;;;;17.48;100.00;102542.50;5009955;28;20355;-53
2022/10/03 07:07:49;;;;;;;20.13;6.77;;;;;;;17.63;100.00;102550.47;5007866;28;20269;-54
2022/10/03 07:10:53;;;;;;;17.50;6.50;;;;;;;18.20;100.00;102565.69;5013613;28;20345;-52
2022/10/03 07:13:43;;;;;;;10.17;5.97;;;;;;;18.44;100.00;102555.31;5013524;28;20314;-56
2022/10/03 07:16:51;;;;;;;19.53;7.00;;;;;;;18.68;100.00;102556.56;4990242;28;20269;-53
2022/10/03 07:19:18;;;;;;;21.10;7.47;;;;;;;18.94;100.00;102557.63;4998416;28;20397;-52
2022/10/03 07:22:03;;;;;;;21.10;7.10;;;;;;;19.10;100.00;102552.81;5015239;28;20270;-54
2022/10/03 07:25:20;;;;;;;14.60;5.73;;;;;;;19.16;100.00;102550.09;5005462;28;20293;-55
2022/10/03 07:28:00;;;;;;;19.47;6.70;;;;;;;19.25;100.00;102560.72;5002272;28;20344;-54
2022/10/03 07:30:50;;;;;;;21.20;6.83;;;;;;;19.45;100.00;102557.97;5004422;28;20261;-53
2022/10/03 07:33:34;;;;;;;22.57;5.70;;;;;;;19.27;100.00;102564.06;4992538;28;20277;-55
2022/10/03 07:39:43;;;;;;;14.90;5.37;;;;;;;19.70;100.00;102570.81;4998808;28;20280;-50
2022/10/03 07:42:58;;;;;;;14.67;5.67;;;;;;;20.65;100.00;102580.13;4998494;28;20277;-50
2022/10/03 07:46:05;;;;;;;16.40;6.97;;;;;;;20.69;100.00;102585.97;5004246;28;20300;-55
2022/10/03 07:48:45;;;;;;;16.13;6.67;;;;;;;21.19;100.00;102590.53;4999738;28;20284;-53
2022/10/03 07:51:16;;;;;;;18.93;6.80;;;;;;;21.55;100.00;102594.38;4991437;28;20288;-53
2022/10/03 07:54:18;;;;;;;20.07;6.37;;;;;;;21.61;100.00;102600.81;5013128;28;20344;-52
2022/10/03 07:57:11;;;;;;;15.77;5.83;;;;;;;21.99;100.00;102594.25;4992079;28;20340;-52
2022/10/03 08:00:04;;;;;;;19.23;5.73;;;;;;;21.27;100.00;102594.88;4991810;28;20284;-53
2022/10/03 08:02:56;;;;;;;19.23;5.57;;;;;;;21.67;100.00;102597.19;5012638;28;20304;-53
2022/10/03 08:05:53;;;;;;;22.70;4.27;;;;;;;21.82;100.00;102598.69;5002645;28;20284;-51
2022/10/03 08:08:29;;;;;;;13.00;3.97;;;;;;;21.80;100.00;102600.78;5011422;28;20276;-52
2022/10/03 08:11:25;;;;;;;16.10;4.80;;;;;;;21.90;100.00;102591.03;4975862;28;20367;-54
2022/10/03 08:14:42;;;;;;;11.33;5.20;;;;;;;22.02;100.00;102595.72;4990916;28;20269;-49
2022/10/03 08:17:47;;;;;;;13.97;4.47;;;;;;;22.01;100.00;102597.59;5008242;28;20276;-55
2022/10/03 08:20:50;;;;;;;15.97;3.97;;;;;;;22.17;100.00;102601.59;4978636;28;20273;-50
2022/10/03 08:23:49;;;;;;;12.43;4.60;;;;;;;22.40;100.00;102602.72;5008870;28;20341;-49
2022/10/03 08:26:38;;;;;;;15.40;4.67;;;;;;;22.01;100.00;102597.59;5003876;28;20065;-53
2022/10/03 08:29:35;;;;;;;10.70;5.20;;;;;;;22.24;100.00;102597.94;5012471;28;20048;-52
2022/10/03 08:32:43;;;;;;;15.40;4.60;;;;;;;22.72;100.00;102599.72;4993263;28;20035;-52
2022/10/03 08:35:21;;;;;;;17.15;5.63;;;;;;;23.57;100.00;102601.38;4993718;28;20038;-57
2022/10/03 08:38:08;;;;;;;13.53;5.20;;;;;;;24.10;100.00;102607.66;5007254;28;20030;-52
2022/10/03 08:41:14;;;;;;;20.80;5.57;;;;;;;24.01;100.00;102604.47;5005597;28;20112;-53
2022/10/03 08:43:40;;;;;;;16.30;5.97;;;;;;;24.57;100.00;102605.75;5012103;28;20285;-55
2022/10/03 08:46:42;;;;;;;15.00;4.53;;;;;;;24.31;100.00;102608.84;4991310;28;20044;-54
2022/10/03 08:49:34;;;;;;;14.23;4.30;;;;;;;25.77;100.00;102614.63;5001658;28;20103;-53
2022/10/03 08:52:40;;;;;;;11.33;3.07;;;;;;;25.54;100.00;102624.75;5008254;28;20043;-52
2022/10/03 08:55:31;;;;;;;9.87;3.63;;;;;;;25.26;100.00;102623.81;4993248;28;20060;-53
2022/10/03 08:58:10;;;;;;;14.93;3.17;;;;;;;24.87;100.00;102623.75;4995544;28;20056;-55
2022/10/03 09:01:01;;;;;;;11.70;2.90;;;;;;;24.22;100.00;102623.16;5000268;28;20044;-54
2022/10/03 09:03:58;;;;;;;12.53;2.70;;;;;;;24.75;100.00;102634.78;4996745;28;20143;-51
2022/10/03 09:06:29;;;;;;;15.27;3.20;;;;;;;24.31;100.00;102625.25;4991194;28;20035;-51
2022/10/03 09:09:16;;;;;;;14.27;2.67;;;;;;;24.52;100.00;102625.63;4996931;28;20031;-54
2022/10/03 09:11:59;;;;;;;12.57;2.43;;;;;;;24.47;100.00;102629.13;4995436;28;20035;-52
2022/10/03 09:14:48;;;;;;;6.40;2.30;;;;;;;24.41;100.00;102627.34;5000653;28;20030;-53
2022/10/03 09:17:48;;;;;;;11.27;2.53;;;;;;;24.90;100.00;102629.56;5006379;28;20064;-54
2022/10/03 09:20:28;;;;;;;8.63;2.50;;;;;;;24.20;100.00;102615.22;4995270;28;20036;-52
2022/10/03 09:23:12;;;;;;;12.23;2.70;;;;;;;24.32;100.00;102612.44;4996823;28;20042;-54
2022/10/03 09:25:50;;;;;;;12.67;2.30;;;;;;;24.47;100.00;102620.06;4997320;28;20026;-52
2022/10/03 09:28:27;;;;;;;11.10;2.50;;;;;;;24.76;100.00;102606.34;4994748;28;20048;-50
2022/10/03 09:31:02;;;;;;;10.13;2.57;;;;;;;24.96;100.00;102616.81;5000500;28;20038;-54
2022/10/03 09:33:38;;;;;;;10.70;2.05;;;;;;;24.37;100.00;102612.50;4998621;28;20272;-53
2022/10/03 09:36:21;;;;;;;5.17;1.80;;;;;;;24.14;100.00;102611.56;4998265;28;20031;-55
2022/10/03 09:39:05;;;;;;;6.83;2.47;;;;;;;24.32;100.00;102604.22;4988203;28;20039;-52
2022/10/03 09:42:01;;;;;;;12.27;2.30;;;;;;;24.41;100.00;102597.28;5000969;28;20045;-54
2022/10/03 09:44:26;;;;;;;10.93;3.00;;;;;;;24.26;100.00;102599.75;5002289;28;20042;-53
2022/10/03 09:47:27;;;;;;;9.07;2.07;;;;;;;24.27;100.00;102598.69;5004524;28;20068;-53
2022/10/03 09:50:20;;;;;;;12.50;2.73;;;;;;;24.84;100.00;102599.63;5004242;28;20090;-55
2022/10/03 09:53:01;;;;;;;10.07;2.30;;;;;;;24.97;100.00;102596.56;4952973;28;20530;-55
2022/10/03 09:56:00;;;;;;;8.53;2.10;;;;;;;25.48;100.00;102606.59;4952511;28;20059;-52
2022/10/03 09:58:54;;;;;;;9.77;2.00;;;;;;;25.19;100.00;102604.00;4956140;28;20047;-53
2022/10/03 10:02:00;;;;;;;6.87;1.60;;;;;;;24.56;100.00;102595.88;4951941;28;20055;-56
2022/10/03 10:04:44;;;;;;;9.00;2.00;;;;;;;24.63;100.00;102602.00;4952525;28;20028;-56
2022/10/03 10:07:29;;;;;;;8.83;1.67;;;;;;;24.36;100.00;102596.38;4953121;28;20050;-56
2022/10/03 10:10:15;;;;;;;11.10;1.97;;;;;;;24.91;100.00;102600.28;4953026;28;20031;-50
2022/10/03 10:12:57;;;;;;;9.60;1.80;;;;;;;25.26;99.01;102601.91;4951099;28;20491;-53
2022/10/03 10:15:45;;;;;;;11.60;2.00;;;;;;;24.91;100.00;102598.41;4952840;28;20035;-54
2022/10/03 10:18:19;;;;;;;14.83;2.27;;;;;;;25.73;97.51;102597.03;4952094;28;20047;-53
2022/10/03 10:21:05;;;;;;;6.97;1.67;;;;;;;25.38;96.15;102603.72;4952692;29;20036;-53
2022/10/03 10:23:46;;;;;;;13.00;2.33;;;;;;;25.70;96.40;102592.06;4932544;28;20074;-56
2022/10/03 10:26:41;;;;;;;9.17;2.10;;;;;;;25.74;91.79;102598.69;4952804;28;20068;-54
2022/10/03 10:29:30;;;;;;;10.53;2.17;;;;;;;25.98;89.56;102601.16;4943896;28;20051;-52
2022/10/03 10:32:20;;;;;;;9.20;1.50;;;;;;;25.83;88.42;102599.88;4951163;29;20056;-56
2022/10/03 10:35:08;;;;;;;5.97;1.30;;;;;;;26.98;83.43;102610.03;4951434;28;20028;-51
2022/10/03 10:37:46;;;;;;;7.53;1.63;;;;;;;26.39;83.72;102608.97;4962560;28;20039;-56
2022/10/03 10:40:51;;;;;;;5.33;1.60;;;;;;;26.51;81.42;102614.28;4952814;28;20032;-53
2022/10/03 10:43:39;;;;;;;11.07;1.87;;;;;;;27.08;79.56;102606.50;4952509;28;20074;-56
2022/10/03 10:46:45;;;;;;;8.23;2.13;;;;;;;26.41;84.83;102613.13;4947528;28;20051;-54
2022/10/03 10:49:38;;;;;;;6.87;1.83;;;;;;;26.81;83.18;102612.91;4951511;28;20031;-52
2022/10/03 10:52:46;;;;;;;7.00;1.63;;;;;;;26.60;80.95;102616.28;4989594;28;20062;-54
2022/10/03 10:55:39;;;;;;;6.90;1.30;;;;;;;26.20;82.33;102607.44;4990353;28;20038;-52
2022/10/03 10:58:30;;;;;;;13.27;2.37;;;;;;;25.99;83.60;102608.28;5009752;28;20046;-56
2022/10/03 11:01:50;;;;;;;11.03;2.27;;;;;;;26.69;82.67;102611.16;4986605;28;20058;-55
2022/10/03 11:04:53;;;;;;;7.53;1.63;;;;;;;26.52;81.79;102611.28;4998396;28;20059;-55
2022/10/03 11:08:21;;;;;;;10.30;2.13;;;;;;;26.74;79.48;102608.44;4989449;28;20050;-54
2022/10/03 11:11:00;;;;;;;10.30;1.92;;;;;;;27.17;78.25;102604.91;4991967;28;20035;-57
2022/10/03 11:13:56;;;;;;;5.03;1.30;;;;;;;27.82;74.23;102617.59;5013328;28;20039;-52
2022/10/03 11:17:19;;;;;;;9.27;1.77;;;;;;;26.93;76.32;102615.47;5007320;28;20042;-55
2022/10/03 11:20:43;;;;;;;8.57;1.80;;;;;;;27.78;72.83;102600.81;4944468;28;20036;-54
2022/10/03 11:23:48;;;;;;;11.60;1.40;;;;;;;27.13;74.29;102612.03;4928166;29;20036;-54
2022/10/03 11:26:25;;;;;;;9.23;1.53;;;;;;;27.45;72.49;102613.84;5021731;28;20041;-53
2022/10/03 11:29:45;;;;;;;11.40;1.53;;;;;;;27.37;73.32;102603.38;5011993;28;20038;-52
2022/10/03 11:32:53;;;;;;;7.60;2.07;;;;;;;27.77;69.92;102599.16;4999900;28;20030;-56
2022/10/03 11:35:46;;;;;;;8.75;1.67;;;;;;;28.62;67.75;102603.41;5000139;28;20035;-55
2022/10/03 11:38:20;;;;;;;10.53;2.07;;;;;;;28.50;67.68;102599.28;5001937;28;20046;-57
2022/10/03 11:41:04;;;;;;;10.47;1.60;;;;;;;28.64;66.67;102594.88;4999993;28;20039;-53
2022/10/03 11:43:36;;;;;;;6.17;1.20;;;;;;;28.17;67.91;102594.88;4999596;28;20065;-56
2022/10/03 11:46:28;;;;;;;7.73;1.93;;;;;;;27.82;68.92;102604.66;5006245;28;20035;-56
2022/10/03 11:49:16;;;;;;;10.33;2.00;;;;;;;27.50;71.54;102602.88;4997716;28;20057;-55
2022/10/03 11:52:03;;;;;;;10.63;1.90;;;;;;;28.42;67.75;102600.66;5006370;28;20050;-54
2022/10/03 11:54:33;;;;;;;7.18;1.75;;;;;;;29.37;62.69;102595.53;4991644;28;20035;-57
2022/10/03 11:57:22;;;;;;;7.80;1.90;;;;;;;29.21;60.46;102603.06;4999417;28;20060;-52
2022/10/03 11:59:51;;;;;;;10.23;1.90;;;;;;;28.46;63.31;102599.00;4992874;28;20034;-54
2022/10/03 12:02:44;;;;;;;8.30;1.50;;;;;;;29.05;61.96;102600.31;5001270;28;20031;-54
2022/10/03 12:05:45;;;;;;;15.00;2.70;;;;;;;29.45;61.90;102602.44;5012769;28;20039;-52
2022/10/03 12:11:22;;;;;;;7.97;1.70;;;;;;;29.17;59.12;102590.94;5003110;28;20074;-55
2022/10/03 12:14:22;;;;;;;5.93;1.30;;;;;;;28.90;59.09;102594.88;4993507;28;20050;-54
2022/10/03 12:17:07;;;;;;;10.60;2.07;;;;;;;28.48;62.23;102581.13;5015445;28;20034;-54
2022/10/03 12:19:36;;;;;;;10.37;1.80;;;;;;;28.26;63.55;102578.66;5001463;28;20054;-55
2022/10/03 12:22:17;;;;;;;7.07;1.30;;;;;;;28.79;62.47;102582.19;5013230;28;21165;-51
2022/10/03 12:24:45;;;;;;;10.17;1.80;;;;;;;28.79;63.20;102579.44;5002191;28;20050;-51
2022/10/03 12:27:28;;;;;;;6.23;1.67;;;;;;;28.85;60.35;102584.69;5012465;28;20077;-56
2022/10/03 12:29:58;;;;;;;6.80;1.90;;;;;;;28.60;62.59;102572.59;4999474;28;20049;-52
2022/10/03 12:32:36;;;;;;;11.03;2.00;;;;;;;28.27;63.51;102579.47;4995620;28;20038;-56
2022/10/03 12:35:28;;;;;;;12.03;1.93;;;;;;;28.88;62.57;102566.81;5010708;28;20031;-54
2022/10/03 12:38:23;;;;;;;8.47;1.97;;;;;;;29.41;60.42;102579.31;5012683;28;20065;-53
2022/10/03 12:41:03;;;;;;;17.80;1.73;;;;;;;29.65;58.93;102576.72;4980467;28;20046;-55
2022/10/03 12:43:47;;;;;;;7.07;2.13;;;;;;;29.06;57.60;102573.63;5011356;28;20042;-55
2022/10/03 12:46:29;;;;;;;8.23;2.03;;;;;;;29.54;57.16;102578.72;4998844;28;20094;-56
2022/10/03 12:49:05;;;;;;;8.67;2.00;;;;;;;31.02;53.88;102577.00;5001437;28;20032;-54
2022/10/03 12:52:00;;;;;;;6.63;1.85;;;;;;;32.00;50.85;102587.91;5010350;28;20055;-58
2022/10/03 12:54:57;;;;;;;14.43;2.23;;;;;;;31.93;49.27;102590.25;4991868;28;20045;-56
2022/10/03 12:57:41;;;;;;;8.18;2.10;;;;;;;31.49;50.97;102584.75;5021955;28;20060;-53
2022/10/03 13:00:48;;;;;;;11.83;1.87;;;;;;;30.64;52.57;102567.75;5007326;28;20113;-54